Time;durP1;ratioP1;P1;durP2;ratioP2;P2;SDS_P1;SDS_P2;PMS_P1;PMS_P2;Temp;Humidity;BMP_temperature;BMP_pressure;BME280_temperature;BME280_humidity;BME280_pressure;Samples;Min_cycle;Max_cycle;Signal;HPM_P1;HPM_P2
2022/11/02 00:01:56;;;;;;;6.93;1.30;;;12.70;99.90;;;;;;5042734;28;20196;-47
2022/11/02 00:04:23;;;;;;;4.30;1.63;;;12.70;99.90;;;;;;5041071;28;20321;-49
2022/11/02 00:06:51;;;;;;;4.87;1.33;;;12.70;99.90;;;;;;5035349;28;20896;-45
2022/11/02 00:09:18;;;;;;;5.10;1.50;;;12.60;99.90;;;;;;5042458;28;20218;-45
2022/11/02 00:11:45;;;;;;;6.10;1.37;;;12.60;99.90;;;;;;5024938;28;20207;-44
2022/11/02 00:14:11;;;;;;;7.27;1.50;;;12.60;99.90;;;;;;5042172;28;20358;-45
2022/11/02 00:16:40;;;;;;;3.50;1.10;;;12.60;99.90;;;;;;5039698;28;20195;-47
2022/11/02 00:19:08;;;;;;;6.87;1.70;;;12.60;99.90;;;;;;5043514;28;20195;-44
2022/11/02 00:21:36;;;;;;;6.37;1.50;;;12.60;99.90;;;;;;5033260;28;20215;-47
2022/11/02 00:24:05;;;;;;;2.53;1.43;;;12.60;99.90;;;;;;5042415;28;20273;-44
2022/11/02 00:26:34;;;;;;;3.27;1.07;;;12.60;99.90;;;;;;5025088;28;20218;-45
2022/11/02 00:29:02;;;;;;;6.03;1.57;;;12.60;99.90;;;;;;5042869;28;20219;-46
2022/11/02 00:31:29;;;;;;;5.50;1.63;;;12.50;99.90;;;;;;5037756;28;20199;-44
2022/11/02 00:33:56;;;;;;;6.30;1.30;;;12.60;99.90;;;;;;5041124;28;20226;-44
2022/11/02 00:36:24;;;;;;;3.53;1.30;;;12.60;99.90;;;;;;5035713;28;20229;-48
2022/11/02 00:38:51;;;;;;;6.53;1.97;;;12.60;99.90;;;;;;5041422;28;20237;-45
2022/11/02 00:41:21;;;;;;;4.97;1.20;;;12.60;99.90;;;;;;5030402;28;20657;-48
2022/11/02 00:43:48;;;;;;;7.97;1.47;;;12.60;99.90;;;;;;5039410;28;20211;-45
2022/11/02 00:46:14;;;;;;;4.37;1.20;;;12.60;99.90;;;;;;5041555;28;20199;-44
2022/11/02 00:48:41;;;;;;;3.83;1.50;;;12.60;99.90;;;;;;5038235;28;20249;-45
2022/11/02 00:51:09;;;;;;;5.00;2.17;;;12.60;99.90;;;;;;5042669;28;20202;-44
2022/11/02 00:53:36;;;;;;;3.60;1.50;;;12.60;99.90;;;;;;5030612;28;20215;-44
2022/11/02 00:56:03;;;;;;;5.43;1.40;;;12.60;99.90;;;;;;5041761;28;20199;-47
2022/11/02 00:58:32;;;;;;;5.40;1.33;;;12.60;99.90;;;;;;5024286;28;20203;-49
2022/11/02 01:01:04;;;;;;;4.20;1.60;;;12.60;99.90;;;;;;5041315;28;20253;-46
2022/11/02 01:03:31;;;;;;;4.30;1.27;;;12.60;99.90;;;;;;5039181;28;20780;-46
2022/11/02 01:05:57;;;;;;;6.53;1.37;;;12.60;99.90;;;;;;5041046;28;20203;-46
2022/11/02 01:08:24;;;;;;;4.80;1.40;;;12.60;99.90;;;;;;5035464;28;20222;-49
2022/11/02 01:10:51;;;;;;;3.30;1.43;;;12.60;99.90;;;;;;5041154;28;20206;-45
2022/11/02 01:13:18;;;;;;;7.30;1.57;;;12.60;99.90;;;;;;5025526;28;20599;-51
2022/11/02 01:15:46;;;;;;;10.03;2.17;;;12.60;99.90;;;;;;5039251;28;20199;-45
2022/11/02 01:18:13;;;;;;;5.83;1.67;;;12.60;99.90;;;;;;5042091;28;20589;-44
2022/11/02 01:20:40;;;;;;;3.13;1.23;;;12.50;99.90;;;;;;5039154;28;20209;-47
2022/11/02 01:23:07;;;;;;;7.57;1.77;;;12.60;99.90;;;;;;5036126;28;20241;-44
2022/11/02 01:25:33;;;;;;;5.83;1.67;;;12.50;99.90;;;;;;5038626;28;20739;-48
2022/11/02 01:28:00;;;;;;;6.27;1.67;;;12.50;99.90;;;;;;5027930;28;20704;-46
2022/11/02 01:30:27;;;;;;;7.67;1.50;;;12.50;99.90;;;;;;5038739;28;20203;-48
2022/11/02 01:32:55;;;;;;;6.17;1.33;;;12.50;99.90;;;;;;5039789;28;20215;-44
2022/11/02 01:35:22;;;;;;;6.23;1.60;;;12.50;99.90;;;;;;5040165;28;20192;-48
2022/11/02 01:37:49;;;;;;;6.47;1.73;;;12.50;99.90;;;;;;5040195;28;20789;-49
2022/11/02 01:40:16;;;;;;;3.13;1.37;;;12.50;99.90;;;;;;5037133;28;20199;-46
2022/11/02 01:42:43;;;;;;;5.43;1.40;;;12.40;99.90;;;;;;5039443;28;20219;-45
2022/11/02 01:45:13;;;;;;;7.47;1.27;;;12.40;99.90;;;;;;5029671;28;20203;-44
2022/11/02 01:47:42;;;;;;;3.47;1.30;;;12.40;99.90;;;;;;5035170;28;20207;-47
2022/11/02 01:50:15;;;;;;;11.23;1.77;;;12.40;99.90;;;;;;5038033;28;20224;-44
2022/11/02 01:52:42;;;;;;;5.57;1.30;;;12.50;99.90;;;;;;5039043;28;20349;-47
2022/11/02 01:55:13;;;;;;;7.20;1.33;;;12.40;99.90;;;;;;5035999;28;20299;-44
2022/11/02 01:57:43;;;;;;;5.23;1.53;;;12.40;99.90;;;;;;5041501;28;20294;-44
2022/11/02 02:00:13;;;;;;;6.17;1.60;;;12.40;99.90;;;;;;5030691;28;20208;-44
2022/11/02 02:02:50;;;;;;;4.73;1.07;;;12.40;99.90;;;;;;5042245;28;20219;-46
2022/11/02 02:05:22;;;;;;;5.43;1.20;;;12.40;99.90;;;;;;5043325;28;20199;-47
2022/11/02 02:07:51;;;;;;;5.13;1.33;;;12.40;99.90;;;;;;5042561;28;20273;-43
2022/11/02 02:10:18;;;;;;;4.87;1.50;;;12.30;99.90;;;;;;5032243;28;20304;-47
2022/11/02 02:12:46;;;;;;;5.33;1.20;;;12.30;99.90;;;;;;5041385;28;20931;-45
2022/11/02 02:15:17;;;;;;;2.90;1.23;;;12.40;99.90;;;;;;5027225;28;20257;-47
2022/11/02 02:17:50;;;;;;;2.87;1.10;;;12.40;99.90;;;;;;5042109;28;20198;-44
2022/11/02 02:20:36;;;;;;;6.23;1.50;;;12.50;99.90;;;;;;5044370;28;20257;-46
2022/11/02 02:23:21;;;;;;;5.03;1.40;;;12.50;99.90;;;;;;5045404;28;20241;-45
2022/11/02 02:26:25;;;;;;;5.50;1.50;;;12.50;99.90;;;;;;5036990;28;20199;-44
2022/11/02 02:28:56;;;;;;;5.20;1.47;;;12.60;99.90;;;;;;5041251;28;20306;-44
2022/11/02 02:31:32;;;;;;;4.53;1.07;;;12.60;99.90;;;;;;5026878;28;20218;-49
2022/11/02 02:34:07;;;;;;;5.90;1.53;;;12.60;99.90;;;;;;5039801;28;20574;-47
2022/11/02 02:36:40;;;;;;;5.30;1.50;;;12.70;99.90;;;;;;5034397;28;20307;-47
2022/11/02 02:39:13;;;;;;;11.67;1.13;;;12.70;99.90;;;;;;5045360;28;20571;-45
2022/11/02 02:41:45;;;;;;;5.10;1.30;;;12.70;99.90;;;;;;5034411;28;20273;-44
2022/11/02 02:44:18;;;;;;;6.33;1.03;;;12.70;99.90;;;;;;5042985;28;20227;-44
2022/11/02 02:46:49;;;;;;;3.87;1.30;;;12.70;99.90;;;;;;5025026;28;20932;-44
2022/11/02 02:49:22;;;;;;;7.10;1.50;;;12.70;99.90;;;;;;5045038;28;20217;-44
2022/11/02 02:51:50;;;;;;;9.97;2.07;;;12.70;99.90;;;;;;5042754;28;20187;-44
2022/11/02 02:54:21;;;;;;;5.33;1.43;;;12.70;99.90;;;;;;5042208;28;20234;-47
2022/11/02 02:56:50;;;;;;;5.33;1.00;;;12.70;99.90;;;;;;5035124;28;22119;-46
2022/11/02 02:59:23;;;;;;;4.10;1.30;;;12.70;99.90;;;;;;5043697;28;20242;-48
2022/11/02 03:01:51;;;;;;;6.10;1.30;;;12.70;99.90;;;;;;5025826;28;20211;-47
2022/11/02 03:04:18;;;;;;;4.80;1.40;;;12.60;99.90;;;;;;5043197;28;20219;-45
2022/11/02 03:06:52;;;;;;;6.33;1.43;;;12.60;99.90;;;;;;5040381;28;20191;-45
2022/11/02 03:09:25;;;;;;;7.87;1.43;;;12.60;99.90;;;;;;5054444;28;20210;-48
2022/11/02 03:12:03;;;;;;;5.93;1.50;;;12.50;99.90;;;;;;5036253;28;20210;-47
2022/11/02 03:14:46;;;;;;;5.10;1.63;;;12.40;99.90;;;;;;5039871;28;20631;-47
2022/11/02 03:17:20;;;;;;;5.00;1.30;;;12.40;99.90;;;;;;5028083;28;20207;-49
2022/11/02 03:19:55;;;;;;;6.17;1.43;;;12.30;99.90;;;;;;5041103;28;20195;-46
2022/11/02 03:22:33;;;;;;;6.43;1.63;;;12.30;99.90;;;;;;5042098;28;20211;-48
2022/11/02 03:25:07;;;;;;;9.03;1.60;;;12.30;99.90;;;;;;5042131;28;20213;-44
2022/11/02 03:27:41;;;;;;;7.83;1.17;;;12.30;99.90;;;;;;5033367;28;20282;-47
2022/11/02 03:30:13;;;;;;;6.27;1.63;;;12.30;99.90;;;;;;5044312;28;20223;-44
2022/11/02 03:32:47;;;;;;;7.93;1.70;;;12.30;99.90;;;;;;5023437;28;20313;-44
2022/11/02 03:35:19;;;;;;;6.47;1.37;;;12.40;99.90;;;;;;5041949;28;20294;-46
2022/11/02 03:37:52;;;;;;;3.43;1.60;;;12.40;99.90;;;;;;5041224;28;20270;-44
2022/11/02 03:40:23;;;;;;;9.00;1.90;;;12.40;99.90;;;;;;5042463;28;20267;-47
2022/11/02 03:42:51;;;;;;;6.57;1.67;;;12.40;99.90;;;;;;5035071;28;20306;-47
2022/11/02 03:45:23;;;;;;;7.10;1.50;;;12.40;99.90;;;;;;5037509;28;20226;-46
2022/11/02 03:47:55;;;;;;;6.67;2.37;;;12.40;99.90;;;;;;5026766;28;20234;-44
2022/11/02 03:50:23;;;;;;;8.00;1.60;;;12.40;99.90;;;;;;5040166;28;20722;-49
2022/11/02 03:52:57;;;;;;;5.70;1.20;;;12.40;99.90;;;;;;5040335;28;20207;-44
2022/11/02 03:55:30;;;;;;;4.37;1.30;;;12.40;99.90;;;;;;5039776;28;20199;-45
2022/11/02 03:57:58;;;;;;;6.10;1.60;;;12.40;99.90;;;;;;5036014;28;20290;-44
2022/11/02 04:00:34;;;;;;;7.23;1.60;;;12.40;99.90;;;;;;5038366;28;20549;-46
2022/11/02 04:03:06;;;;;;;4.70;1.40;;;12.40;99.90;;;;;;5041465;28;20230;-45
2022/11/02 04:05:38;;;;;;;5.67;1.30;;;12.50;99.90;;;;;;5021480;28;20210;-46
2022/11/02 04:08:21;;;;;;;12.63;1.70;;;12.50;99.90;;;;;;5040704;28;20201;-44
2022/11/02 04:16:26;;;;;;;4.63;1.30;;;12.40;99.90;;;;;;5049488;28;20200;-45
2022/11/02 04:25:14;;;;;;;4.90;1.70;;;12.50;99.90;;;;;;5032312;28;20207;-45
2022/11/02 04:27:12;;;;;;;5.97;1.60;;;12.50;99.90;;;;;;5036515;28;20195;-44
2022/11/02 04:29:39;;;;;;;3.37;1.70;;;12.50;99.90;;;;;;5031912;28;20819;-45
2022/11/02 04:32:07;;;;;;;8.30;1.67;;;12.50;99.90;;;;;;5043264;28;20199;-45
2022/11/02 04:34:34;;;;;;;10.07;2.10;;;12.50;99.90;;;;;;5014502;28;20230;-46
2022/11/02 04:38:38;;;;;;;6.00;1.40;;;12.50;99.90;;;;;;5040584;28;20199;-44
2022/11/02 04:39:47;;;;;;;5.47;1.60;;;12.50;99.90;;;;;;5040788;28;20191;-45
2022/11/02 04:42:14;;;;;;;8.70;1.50;;;12.50;99.90;;;;;;5042149;28;20298;-46
2022/11/02 04:44:53;;;;;;;7.40;1.60;;;12.50;99.90;;;;;;5030207;28;20207;-47
2022/11/02 04:47:24;;;;;;;7.60;1.53;;;12.50;99.90;;;;;;5034049;28;20229;-48
2022/11/02 04:49:52;;;;;;;6.90;1.67;;;12.50;99.90;;;;;;5030422;28;20330;-44
2022/11/02 04:52:19;;;;;;;8.13;1.73;;;12.50;99.90;;;;;;5026304;28;20199;-45
2022/11/02 04:54:50;;;;;;;5.80;1.53;;;12.40;99.90;;;;;;5038472;28;20840;-45
2022/11/02 04:57:17;;;;;;;6.37;2.10;;;12.40;99.90;;;;;;5041811;28;20574;-48
2022/11/02 04:59:44;;;;;;;6.97;1.93;;;12.40;99.90;;;;;;5028295;28;20203;-46
2022/11/02 05:02:12;;;;;;;9.60;2.90;;;12.40;99.90;;;;;;5040647;28;20210;-44
2022/11/02 05:04:42;;;;;;;6.50;1.90;;;12.40;99.90;;;;;;5031665;28;20223;-45
2022/11/02 05:07:10;;;;;;;9.37;1.70;;;12.40;99.90;;;;;;5038028;28;20706;-44
2022/11/02 05:09:41;;;;;;;7.53;1.70;;;12.40;99.90;;;;;;5034321;28;20313;-44
2022/11/02 05:12:09;;;;;;;5.83;1.43;;;12.30;99.90;;;;;;5041170;28;20199;-45
2022/11/02 05:14:37;;;;;;;6.77;1.90;;;12.30;99.90;;;;;;5022372;28;20302;-45
2022/11/02 05:17:04;;;;;;;10.13;2.73;;;12.30;99.90;;;;;;5035410;28;20294;-45
2022/11/02 05:19:34;;;;;;;6.17;1.47;;;12.30;99.90;;;;;;5035686;28;20194;-47
2022/11/02 05:22:03;;;;;;;7.30;1.40;;;12.30;99.90;;;;;;5025851;28;20211;-46
2022/11/02 05:24:30;;;;;;;4.10;1.50;;;12.30;99.90;;;;;;5040016;28;21215;-47
2022/11/02 05:26:59;;;;;;;6.20;1.50;;;12.30;99.90;;;;;;5041809;28;20200;-48
2022/11/02 05:29:27;;;;;;;7.23;1.27;;;12.30;99.90;;;;;;5036517;28;20231;-44
2022/11/02 05:31:54;;;;;;;6.77;1.60;;;12.30;99.90;;;;;;5040251;28;20707;-47
2022/11/02 05:34:21;;;;;;;4.20;1.40;;;12.30;99.90;;;;;;5038687;28;20310;-44
2022/11/02 05:36:49;;;;;;;4.93;1.77;;;12.30;99.90;;;;;;5028419;28;20794;-45
2022/11/02 05:39:17;;;;;;;5.30;1.77;;;12.30;99.90;;;;;;5040734;28;20784;-46
2022/11/02 05:41:44;;;;;;;7.37;1.57;;;12.30;99.90;;;;;;5039491;28;20250;-44
2022/11/02 05:44:12;;;;;;;5.90;1.67;;;12.30;99.90;;;;;;5038555;28;21587;-45
2022/11/02 05:46:40;;;;;;;7.93;1.93;;;12.30;99.90;;;;;;5031042;28;20624;-46
2022/11/02 05:49:07;;;;;;;3.47;1.47;;;12.20;99.90;;;;;;5041616;28;20227;-45
2022/11/02 05:51:33;;;;;;;8.13;1.67;;;12.20;99.90;;;;;;5035239;28;20238;-44
2022/11/02 05:54:00;;;;;;;6.53;1.50;;;12.20;99.90;;;;;;5027422;28;20272;-47
2022/11/02 05:56:28;;;;;;;5.07;1.33;;;12.20;99.90;;;;;;5034222;28;20445;-44
2022/11/02 05:58:55;;;;;;;6.87;2.73;;;12.20;99.90;;;;;;5039442;28;20191;-45
2022/11/02 06:01:22;;;;;;;7.93;1.80;;;12.20;99.90;;;;;;5025620;28;20195;-46
2022/11/02 06:03:49;;;;;;;9.87;2.27;;;12.10;99.90;;;;;;5042153;28;20300;-46
2022/11/02 06:06:16;;;;;;;5.03;1.43;;;12.10;99.90;;;;;;5041047;28;20202;-44
2022/11/02 06:08:43;;;;;;;5.80;1.43;;;12.10;99.90;;;;;;5020795;28;20211;-43
2022/11/02 06:11:11;;;;;;;6.53;1.97;;;12.00;99.90;;;;;;5033597;28;20229;-46
2022/11/02 06:13:41;;;;;;;6.00;1.60;;;12.10;99.90;;;;;;5039459;28;20227;-45
2022/11/02 06:16:10;;;;;;;6.43;1.70;;;12.10;99.90;;;;;;5026889;28;20249;-44
2022/11/02 06:18:37;;;;;;;10.03;3.07;;;12.00;99.90;;;;;;5040395;28;20230;-44
2022/11/02 06:21:05;;;;;;;9.47;2.03;;;12.10;99.90;;;;;;5033115;28;20204;-45
2022/11/02 06:23:32;;;;;;;5.23;2.63;;;12.10;99.90;;;;;;5020409;28;20235;-47
2022/11/02 06:26:00;;;;;;;10.77;2.00;;;12.10;99.90;;;;;;5033770;28;20200;-44
2022/11/02 06:28:28;;;;;;;4.87;1.80;;;12.10;99.90;;;;;;5037161;28;20191;-44
2022/11/02 06:30:57;;;;;;;5.33;1.73;;;12.10;99.90;;;;;;5039277;28;20231;-47
2022/11/02 06:33:24;;;;;;;6.77;2.03;;;12.20;99.90;;;;;;5034138;28;20211;-47
2022/11/02 06:35:52;;;;;;;8.77;1.87;;;12.20;99.90;;;;;;5043375;28;20195;-44
2022/11/02 06:38:20;;;;;;;5.67;1.70;;;12.20;99.90;;;;;;5034605;28;20210;-44
2022/11/02 06:40:53;;;;;;;5.53;2.20;;;12.30;99.90;;;;;;5030900;28;20218;-47
2022/11/02 06:43:21;;;;;;;5.83;1.83;;;12.30;99.90;;;;;;5038943;28;20207;-49
2022/11/02 06:45:47;;;;;;;8.53;1.73;;;12.30;99.90;;;;;;5043732;28;20672;-44
2022/11/02 06:48:16;;;;;;;6.20;1.50;;;12.30;99.90;;;;;;5034619;28;20200;-49
2022/11/02 06:50:43;;;;;;;7.00;1.60;;;12.30;99.90;;;;;;5043646;28;20306;-47
2022/11/02 06:53:10;;;;;;;10.57;2.23;;;12.30;99.90;;;;;;5035991;28;20306;-48
2022/11/02 06:55:37;;;;;;;6.87;1.60;;;12.30;99.90;;;;;;5028855;28;20203;-44
2022/11/02 06:58:04;;;;;;;5.37;1.60;;;12.30;99.90;;;;;;5040674;28;20199;-46
2022/11/02 07:00:31;;;;;;;5.60;1.67;;;12.20;99.90;;;;;;5041463;28;20270;-46
2022/11/02 07:03:02;;;;;;;5.47;1.60;;;12.20;99.90;;;;;;5036094;28;20219;-48
2022/11/02 07:05:30;;;;;;;2.87;1.20;;;12.20;99.90;;;;;;5041621;28;20191;-44
2022/11/02 07:07:58;;;;;;;9.57;1.43;;;12.20;99.90;;;;;;5043882;28;20249;-45
2022/11/02 07:10:26;;;;;;;5.57;1.57;;;12.20;99.90;;;;;;5022955;28;20234;-45
2022/11/02 07:12:54;;;;;;;6.00;1.83;;;12.20;99.90;;;;;;5044399;28;20223;-46
2022/11/02 07:15:21;;;;;;;5.73;1.20;;;12.20;99.90;;;;;;5039572;28;20196;-46
2022/11/02 07:17:48;;;;;;;13.03;2.13;;;12.20;99.90;;;;;;5044270;28;20199;-44
2022/11/02 07:20:15;;;;;;;12.63;2.23;;;12.20;99.90;;;;;;5033880;28;20199;-46
2022/11/02 07:22:51;;;;;;;7.93;1.60;;;12.20;99.90;;;;;;5037585;28;20227;-46
2022/11/02 07:25:18;;;;;;;5.20;1.80;;;12.30;99.90;;;;;;5034531;28;20183;-47
2022/11/02 07:27:44;;;;;;;4.53;1.77;;;12.30;99.90;;;;;;5023344;28;20226;-44
2022/11/02 07:30:12;;;;;;;8.50;2.23;;;12.30;99.90;;;;;;5034918;28;20209;-45
2022/11/02 07:32:40;;;;;;;9.87;1.80;;;12.40;99.90;;;;;;5039414;28;20212;-44
2022/11/02 07:35:08;;;;;;;10.13;2.63;;;12.40;99.90;;;;;;5028417;28;20210;-44
2022/11/02 07:37:35;;;;;;;6.37;1.97;;;12.40;99.90;;;;;;5024798;28;20215;-47
2022/11/02 07:40:05;;;;;;;5.93;2.00;;;12.50;99.90;;;;;;5023429;28;20471;-48
2022/11/02 07:42:32;;;;;;;6.30;1.60;;;12.60;99.90;;;;;;5015730;28;20199;-48
2022/11/02 07:44:59;;;;;;;5.77;1.70;;;12.60;99.90;;;;;;5007957;28;20207;-50
2022/11/02 07:47:26;;;;;;;5.93;2.30;;;12.60;99.90;;;;;;5026083;28;20191;-47
2022/11/02 07:49:53;;;;;;;7.83;2.10;;;12.60;99.90;;;;;;5024002;28;20191;-47
2022/11/02 07:52:19;;;;;;;8.00;2.97;;;12.50;99.90;;;;;;5037273;28;20770;-41
2022/11/02 07:55:10;;;;;;;8.03;2.57;;;12.50;99.90;;;;;;5031478;28;20226;-41
2022/11/02 07:57:36;;;;;;;5.30;2.33;;;12.60;99.90;;;;;;5018443;28;20218;-42
2022/11/02 08:00:04;;;;;;;5.10;1.37;;;12.50;99.90;;;;;;5035964;28;20187;-44
2022/11/02 08:02:38;;;;;;;6.03;2.37;;;12.60;99.90;;;;;;5023003;28;20309;-44
2022/11/02 08:05:06;;;;;;;5.23;1.67;;;12.60;99.90;;;;;;5028054;28;20214;-41
2022/11/02 08:07:33;;;;;;;6.30;1.97;;;12.60;99.90;;;;;;5029473;28;20994;-43
2022/11/02 08:10:00;;;;;;;6.40;1.73;;;12.60;99.90;;;;;;5034960;28;20206;-42
2022/11/02 08:12:28;;;;;;;6.93;1.90;;;12.60;99.90;;;;;;5010531;28;20218;-43
2022/11/02 08:14:55;;;;;;;7.90;1.77;;;12.60;99.90;;;;;;5034656;28;20206;-45
2022/11/02 08:17:22;;;;;;;9.67;2.20;;;12.60;99.90;;;;;;5031460;28;20278;-41
2022/11/02 08:19:49;;;;;;;6.33;2.00;;;12.70;99.90;;;;;;5039510;28;20291;-41
2022/11/02 08:22:16;;;;;;;4.57;1.93;;;12.70;99.90;;;;;;5024014;28;20222;-44
2022/11/02 08:24:43;;;;;;;7.70;1.83;;;12.70;99.90;;;;;;5040985;28;20199;-41
2022/11/02 08:27:10;;;;;;;5.60;1.80;;;12.70;99.90;;;;;;5024128;28;20207;-46
2022/11/02 08:29:38;;;;;;;11.13;2.50;;;12.80;99.90;;;;;;5038499;28;20286;-44
2022/11/02 08:32:05;;;;;;;7.60;2.20;;;12.80;99.90;;;;;;5024021;28;20218;-42
2022/11/02 08:34:32;;;;;;;6.13;1.90;;;12.80;99.90;;;;;;5033651;28;20563;-45
2022/11/02 08:36:58;;;;;;;6.17;2.87;;;12.80;99.90;;;;;;5024793;28;20218;-41
2022/11/02 08:39:25;;;;;;;5.57;2.30;;;12.90;99.90;;;;;;5024237;28;20879;-44
2022/11/02 08:41:52;;;;;;;6.93;2.20;;;13.00;99.90;;;;;;5038687;28;20192;-42
2022/11/02 08:44:18;;;;;;;7.23;2.20;;;13.00;99.90;;;;;;5012649;28;20365;-42
2022/11/02 08:46:46;;;;;;;5.80;2.00;;;13.10;99.90;;;;;;5038831;28;20203;-41
2022/11/02 08:49:13;;;;;;;4.97;1.17;;;13.10;99.90;;;;;;5026911;28;20215;-46
2022/11/02 08:51:40;;;;;;;3.23;1.00;;;13.20;99.90;;;;;;5031447;28;20226;-42
2022/11/02 08:54:06;;;;;;;6.97;1.10;;;13.20;99.90;;;;;;5025365;28;20219;-43
2022/11/02 08:56:33;;;;;;;7.27;1.47;;;13.20;99.90;;;;;;5038991;28;20211;-44
2022/11/02 08:59:00;;;;;;;6.30;1.47;;;13.30;99.90;;;;;;5020250;28;20226;-44
2022/11/02 09:01:26;;;;;;;5.80;1.70;;;13.30;99.90;;;;;;5034406;28;20218;-43
2022/11/02 09:03:54;;;;;;;7.60;1.40;;;13.30;99.90;;;;;;5030519;28;20226;-42
2022/11/02 09:06:21;;;;;;;9.10;2.30;;;13.40;99.90;;;;;;5030091;28;20520;-41
2022/11/02 09:08:48;;;;;;;6.33;1.73;;;13.30;99.90;;;;;;5034900;28;20211;-42
2022/11/02 09:11:15;;;;;;;5.30;2.93;;;13.30;99.90;;;;;;5024655;28;20207;-41
2022/11/02 09:13:42;;;;;;;6.30;1.63;;;13.30;99.90;;;;;;5022767;28;20266;-42
2022/11/02 09:16:08;;;;;;;7.50;2.40;;;13.30;99.90;;;;;;5041077;28;20207;-43
2022/11/02 09:18:36;;;;;;;7.93;1.60;;;13.30;99.90;;;;;;5043904;28;20199;-43
2022/11/02 09:21:05;;;;;;;4.43;2.20;;;13.40;99.90;;;;;;5038093;28;20242;-42
2022/11/02 09:23:32;;;;;;;5.97;1.40;;;13.30;99.90;;;;;;5034536;28;20230;-45
2022/11/02 09:25:59;;;;;;;8.83;1.80;;;13.40;99.90;;;;;;5035808;28;20209;-40
2022/11/02 09:28:27;;;;;;;8.77;1.80;;;13.40;99.90;;;;;;5047852;28;20196;-40
2022/11/02 09:30:53;;;;;;;4.33;2.10;;;13.30;99.90;;;;;;5029546;28;20324;-42
2022/11/02 09:33:20;;;;;;;8.20;2.53;;;13.40;99.90;;;;;;5038104;28;20226;-42
2022/11/02 09:35:48;;;;;;;7.40;2.37;;;13.40;99.90;;;;;;5033798;28;20223;-41
2022/11/02 09:38:18;;;;;;;10.03;2.20;;;13.40;99.90;;;;;;5047743;28;20863;-41
2022/11/02 09:40:48;;;;;;;3.87;1.77;;;13.40;99.90;;;;;;5032231;28;20198;-43
2022/11/02 09:43:24;;;;;;;6.07;1.87;;;13.30;99.90;;;;;;5046477;28;20219;-43
2022/11/02 09:45:58;;;;;;;7.23;2.00;;;13.30;99.90;;;;;;5027901;28;21130;-44
2022/11/02 09:48:28;;;;;;;3.30;1.60;;;13.20;99.90;;;;;;5045248;28;20210;-45
2022/11/02 09:51:02;;;;;;;4.23;1.63;;;13.20;99.90;;;;;;5037899;28;21295;-42
2022/11/02 09:53:38;;;;;;;7.87;1.80;;;13.10;99.90;;;;;;5044970;28;20242;-43
2022/11/02 09:56:07;;;;;;;5.87;2.37;;;13.10;99.90;;;;;;5031695;28;20295;-41
2022/11/02 09:58:38;;;;;;;4.67;1.73;;;13.00;99.90;;;;;;5039475;28;20572;-42
2022/11/02 10:01:16;;;;;;;9.07;1.83;;;13.10;99.90;;;;;;5036076;28;20214;-41
2022/11/02 10:03:59;;;;;;;7.07;2.17;;;13.10;99.90;;;;;;5015889;28;20253;-41
2022/11/02 10:06:29;;;;;;;4.33;1.23;;;13.10;99.90;;;;;;5034107;28;20211;-44
2022/11/02 10:09:04;;;;;;;6.13;2.37;;;13.10;99.90;;;;;;5035164;28;20424;-41
2022/11/02 10:11:42;;;;;;;6.20;1.70;;;13.10;99.90;;;;;;5032650;28;20215;-45
2022/11/02 10:14:14;;;;;;;6.77;1.80;;;13.20;99.90;;;;;;5041664;28;20211;-41
2022/11/02 10:16:49;;;;;;;7.03;1.80;;;13.20;99.90;;;;;;5023891;28;20293;-41
2022/11/02 10:19:19;;;;;;;7.23;1.43;;;13.20;99.90;;;;;;5043997;28;20257;-41
2022/11/02 10:21:49;;;;;;;3.63;1.40;;;13.20;99.90;;;;;;5018833;28;20309;-41
2022/11/02 10:24:25;;;;;;;5.90;1.73;;;13.10;99.90;;;;;;5023962;28;20266;-43
2022/11/02 10:26:55;;;;;;;4.77;1.43;;;13.00;99.90;;;;;;5027864;28;20264;-44
2022/11/02 10:29:33;;;;;;;6.17;1.40;;;13.00;99.90;;;;;;5034388;28;20196;-45
2022/11/02 10:32:02;;;;;;;8.03;1.53;;;12.90;99.90;;;;;;5033021;28;20215;-42
2022/11/02 10:34:30;;;;;;;2.57;0.87;;;12.80;99.90;;;;;;5016983;28;20227;-42
2022/11/02 10:37:11;;;;;;;4.03;1.23;;;12.70;99.90;;;;;;5030273;28;20211;-41
2022/11/02 10:39:47;;;;;;;6.37;2.10;;;12.70;99.90;;;;;;5036942;28;20191;-43
2022/11/02 10:42:29;;;;;;;2.97;2.50;;;12.70;99.90;;;;;;5035106;28;20203;-41
2022/11/02 10:45:12;;;;;;;2.33;0.90;;;12.80;99.90;;;;;;5030708;28;20936;-41
2022/11/02 10:47:44;;;;;;;3.60;1.20;;;12.90;99.90;;;;;;5034215;28;20195;-41
2022/11/02 10:50:26;;;;;;;6.50;1.10;;;13.00;99.90;;;;;;5027508;28;20199;-43
2022/11/02 10:52:53;;;;;;;5.97;1.40;;;13.00;99.90;;;;;;5033608;28;20230;-42
2022/11/02 10:55:29;;;;;;;4.13;1.03;;;12.90;99.90;;;;;;5041930;28;20681;-44
2022/11/02 10:58:00;;;;;;;6.93;2.30;;;13.00;99.90;;;;;;5032652;28;20229;-43
2022/11/02 11:00:32;;;;;;;7.37;1.80;;;13.00;99.90;;;;;;5035634;28;20203;-44
2022/11/02 11:03:08;;;;;;;6.67;1.97;;;13.00;99.90;;;;;;5040507;28;20295;-41
2022/11/02 11:05:37;;;;;;;6.23;2.57;;;13.00;99.90;;;;;;5024179;28;20668;-45
2022/11/02 11:08:05;;;;;;;5.93;1.97;;;13.00;99.90;;;;;;5033616;28;20641;-40
2022/11/02 11:10:36;;;;;;;2.80;1.40;;;13.00;99.90;;;;;;5035476;28;20198;-43
2022/11/02 11:13:06;;;;;;;5.67;1.43;;;13.20;99.90;;;;;;5034999;28;20231;-46
2022/11/02 11:15:33;;;;;;;8.50;1.40;;;13.30;99.90;;;;;;5026482;28;20219;-44
2022/11/02 11:18:11;;;;;;;3.70;1.23;;;13.40;99.90;;;;;;5043919;28;20569;-46
2022/11/02 11:20:40;;;;;;;4.10;0.80;;;13.40;99.90;;;;;;5019179;28;22923;-42
2022/11/02 11:23:21;;;;;;;3.67;1.67;;;13.40;99.90;;;;;;5030169;28;20714;-43
2022/11/02 11:25:57;;;;;;;4.17;1.33;;;13.40;99.90;;;;;;5035693;28;20413;-40
2022/11/02 11:28:26;;;;;;;7.27;1.97;;;13.50;99.90;;;;;;5027695;28;20644;-41
2022/11/02 11:31:12;;;;;;;3.53;1.37;;;13.50;99.90;;;;;;5032675;28;20223;-42
2022/11/02 11:33:45;;;;;;;5.13;1.60;;;13.60;99.90;;;;;;5035872;28;20215;-41
2022/11/02 11:36:23;;;;;;;5.27;1.13;;;13.70;99.90;;;;;;5019742;28;20211;-43
2022/11/02 11:38:50;;;;;;;5.23;1.37;;;13.80;99.90;;;;;;5027633;28;20705;-40
2022/11/02 11:41:18;;;;;;;4.53;1.17;;;13.80;99.90;;;;;;5031607;28;20218;-40
2022/11/02 11:43:47;;;;;;;4.97;1.20;;;13.80;99.90;;;;;;5025949;28;20234;-42
2022/11/02 11:46:15;;;;;;;4.10;0.90;;;13.70;99.90;;;;;;5032914;28;20203;-40
2022/11/02 11:48:46;;;;;;;3.30;0.80;;;13.70;99.90;;;;;;5029459;28;20203;-42
2022/11/02 11:51:28;;;;;;;2.23;0.73;;;13.70;99.90;;;;;;5024539;28;20215;-41
2022/11/02 11:54:27;;;;;;;4.53;0.80;;;13.70;99.90;;;;;;5037285;28;20223;-40
2022/11/02 11:56:56;;;;;;;4.43;0.90;;;13.60;99.90;;;;;;5024242;28;20215;-42
2022/11/02 11:59:27;;;;;;;9.60;1.27;;;13.70;99.90;;;;;;5030299;28;20592;-44
2022/11/02 12:01:57;;;;;;;2.37;0.70;;;13.70;99.90;;;;;;5021179;28;20253;-43
2022/11/02 12:04:30;;;;;;;5.07;1.70;;;13.60;99.90;;;;;;5026328;28;20713;-41
2022/11/02 12:07:19;;;;;;;4.47;1.00;;;13.60;99.90;;;;;;5019900;28;20300;-40
2022/11/02 12:09:51;;;;;;;6.20;1.00;;;13.50;99.90;;;;;;5022837;28;20200;-41
2022/11/02 12:12:31;;;;;;;5.83;1.00;;;13.40;99.90;;;;;;5028886;28;20231;-42
2022/11/02 12:15:09;;;;;;;3.10;0.80;;;13.30;99.90;;;;;;5026918;28;20631;-43
2022/11/02 12:17:49;;;;;;;7.33;1.90;;;13.30;99.90;;;;;;5026800;28;20222;-40
2022/11/02 12:20:41;;;;;;;4.90;0.80;;;13.30;99.90;;;;;;5013955;28;20206;-47
2022/11/02 12:23:22;;;;;;;4.20;0.80;;;13.20;99.90;;;;;;5026099;28;20238;-41
2022/11/02 12:25:55;;;;;;;3.30;1.13;;;13.10;99.90;;;;;;5028132;28;20199;-41
2022/11/02 12:28:34;;;;;;;3.00;0.70;;;13.10;99.90;;;;;;5032414;28;20289;-41
2022/11/02 12:31:15;;;;;;;4.47;1.17;;;13.10;99.90;;;;;;5027689;28;20977;-40
2022/11/02 12:33:54;;;;;;;3.57;1.27;;;13.20;99.90;;;;;;5035800;28;20230;-41
2022/11/02 12:36:34;;;;;;;3.57;1.13;;;13.30;99.90;;;;;;5015044;28;20214;-41
2022/11/02 12:39:07;;;;;;;2.33;0.90;;;13.50;99.90;;;;;;5030493;28;20222;-41
2022/11/02 12:41:59;;;;;;;3.07;0.90;;;13.50;99.90;;;;;;5036912;28;20661;-42
2022/11/02 12:44:47;;;;;;;2.87;0.90;;;13.60;99.90;;;;;;5032314;28;20234;-41
2022/11/02 12:47:27;;;;;;;5.63;1.10;;;13.70;99.90;;;;;;5034744;28;20195;-43
2022/11/02 12:50:07;;;;;;;4.80;0.87;;;13.70;99.90;;;;;;5035603;28;20202;-41
2022/11/02 12:52:48;;;;;;;4.03;1.00;;;13.80;99.90;;;;;;5022146;28;20207;-43
2022/11/02 12:55:18;;;;;;;1.97;0.53;;;13.70;99.90;;;;;;5037030;28;20198;-43
2022/11/02 12:57:46;;;;;;;1.70;0.70;;;13.70;99.90;;;;;;5032674;28;20315;-41
2022/11/02 13:00:21;;;;;;;2.53;0.83;;;13.80;99.90;;;;;;5031468;28;20258;-41
2022/11/02 13:02:57;;;;;;;2.27;1.00;;;13.80;99.90;;;;;;5026245;28;21105;-43
2022/11/02 13:05:28;;;;;;;3.13;1.13;;;13.90;99.90;;;;;;5029408;28;20629;-43
2022/11/02 13:08:04;;;;;;;3.17;0.70;;;13.80;99.90;;;;;;5023759;28;20203;-40
2022/11/02 13:10:38;;;;;;;4.13;0.87;;;13.90;99.90;;;;;;5024017;28;20648;-41
2022/11/02 13:13:13;;;;;;;2.03;1.00;;;14.00;99.90;;;;;;5026485;28;20227;-44
2022/11/02 13:15:44;;;;;;;3.00;0.93;;;14.20;99.90;;;;;;5032060;28;20785;-42